Time;durP1;ratioP1;P1;durP2;ratioP2;P2;SDS_P1;SDS_P2;PMS_P1;PMS_P2;Temp;Humidity;BMP_temperature;BMP_pressure;BME280_temperature;BME280_humidity;BME280_pressure;Samples;Min_cycle;Max_cycle;Signal;HPM_P1;HPM_P2
2021/11/25 00:02:06;;;;;;;24.60;12.95;;;4.00;72.50;;;;;;5055211;28;20040;-46
2021/11/25 00:04:31;;;;;;;25.55;13.20;;;3.90;72.30;;;;;;5055737;28;20048;-46
2021/11/25 00:06:57;;;;;;;30.58;14.45;;;3.90;72.30;;;;;;5055066;28;20041;-46
2021/11/25 00:09:23;;;;;;;26.30;13.70;;;3.90;72.30;;;;;;5055788;28;20033;-47
2021/11/25 00:11:49;;;;;;;30.63;15.38;;;3.90;72.30;;;;;;5055156;28;20040;-36
2021/11/25 00:14:15;;;;;;;24.38;13.80;;;3.80;72.40;;;;;;5055376;28;20048;-36
2021/11/25 00:16:40;;;;;;;29.77;14.88;;;3.80;72.40;;;;;;5055372;28;20044;-35
2021/11/25 00:19:06;;;;;;;29.80;15.00;;;3.80;72.50;;;;;;5056220;28;20029;-35
2021/11/25 00:21:33;;;;;;;26.40;13.95;;;3.70;72.40;;;;;;5059161;28;20333;-46
2021/11/25 00:23:58;;;;;;;27.23;13.18;;;3.70;72.40;;;;;;5059023;28;20079;-47
2021/11/25 00:26:25;;;;;;;26.27;13.90;;;3.60;72.40;;;;;;5058892;28;20041;-46
2021/11/25 00:28:51;;;;;;;28.67;13.07;;;3.60;72.60;;;;;;5059033;28;20109;-35
2021/11/25 00:31:17;;;;;;;24.17;12.75;;;3.50;72.70;;;;;;5059180;28;20127;-36
2021/11/25 00:33:43;;;;;;;22.73;12.25;;;3.50;72.70;;;;;;5059133;28;20405;-46
2021/11/25 00:36:09;;;;;;;26.55;12.10;;;3.40;72.70;;;;;;5058981;28;20275;-38
2021/11/25 00:38:34;;;;;;;22.73;11.30;;;3.40;72.80;;;;;;5058676;28;20416;-38
2021/11/25 00:41:01;;;;;;;21.92;11.70;;;3.30;72.80;;;;;;5059356;28;20060;-36
2021/11/25 00:43:26;;;;;;;24.50;11.95;;;3.30;73.00;;;;;;5058955;28;20045;-36
2021/11/25 00:45:52;;;;;;;21.35;12.05;;;3.20;73.00;;;;;;5059274;28;20321;-36
2021/11/25 00:48:18;;;;;;;24.20;11.73;;;3.20;73.10;;;;;;5058481;28;20163;-35
2021/11/25 00:50:44;;;;;;;20.73;11.55;;;3.20;73.20;;;;;;5059172;28;20077;-46
2021/11/25 00:53:10;;;;;;;21.48;11.18;;;3.10;73.20;;;;;;5058589;28;20037;-36
2021/11/25 00:55:38;;;;;;;20.85;11.95;;;3.10;73.30;;;;;;5058395;28;20433;-45
2021/11/25 00:58:04;;;;;;;20.70;11.93;;;3.00;73.40;;;;;;5057984;28;20037;-36
2021/11/25 01:00:30;;;;;;;22.35;11.88;;;3.00;73.50;;;;;;5059039;28;20036;-36
2021/11/25 01:02:56;;;;;;;25.45;12.70;;;3.00;73.50;;;;;;5058586;28;20033;-46
2021/11/25 01:05:22;;;;;;;21.77;12.27;;;2.90;73.60;;;;;;5058870;28;20025;-46
2021/11/25 01:07:48;;;;;;;21.13;11.23;;;2.90;73.70;;;;;;5058142;28;20187;-46
2021/11/25 01:10:18;;;;;;;21.45;12.48;;;2.90;73.70;;;;;;5058303;28;20025;-46
2021/11/25 01:12:45;;;;;;;22.45;12.10;;;2.80;73.70;;;;;;5058157;28;20037;-35
2021/11/25 01:15:12;;;;;;;23.10;11.63;;;2.80;73.80;;;;;;5058617;28;20112;-38
2021/11/25 01:17:39;;;;;;;22.90;12.13;;;2.80;74.00;;;;;;5057978;28;20056;-46
2021/11/25 01:20:09;;;;;;;22.92;12.13;;;2.80;74.00;;;;;;5058150;28;20029;-46
2021/11/25 01:22:34;;;;;;;24.73;11.82;;;2.70;74.10;;;;;;5058117;28;20029;-46
2021/11/25 01:25:00;;;;;;;22.02;12.45;;;2.70;74.10;;;;;;5058194;28;20036;-34
2021/11/25 01:27:26;;;;;;;23.20;12.43;;;2.70;74.20;;;;;;5058022;28;20040;-46
2021/11/25 01:29:51;;;;;;;21.92;11.65;;;2.70;74.20;;;;;;5057784;28;20413;-37
2021/11/25 01:32:17;;;;;;;23.55;13.05;;;2.60;74.30;;;;;;5056880;28;20082;-35
2021/11/25 01:34:43;;;;;;;21.38;11.63;;;2.60;74.30;;;;;;5058040;28;20036;-35
2021/11/25 01:37:09;;;;;;;26.27;12.90;;;2.60;74.40;;;;;;5057794;28;20079;-38
2021/11/25 01:39:35;;;;;;;22.35;12.35;;;2.50;74.40;;;;;;5057830;28;20072;-36
2021/11/25 01:42:01;;;;;;;23.77;12.38;;;2.50;74.50;;;;;;5057698;28;20071;-46
2021/11/25 01:44:27;;;;;;;25.08;13.10;;;2.50;74.50;;;;;;5058042;28;20080;-34
2021/11/25 01:46:52;;;;;;;24.20;13.07;;;2.40;74.60;;;;;;5057583;28;20401;-35
2021/11/25 01:49:18;;;;;;;26.65;13.85;;;2.40;74.60;;;;;;5057713;28;20397;-36
2021/11/25 01:51:44;;;;;;;25.52;13.60;;;2.30;74.70;;;;;;5057688;28;20414;-46
2021/11/25 01:54:09;;;;;;;25.92;14.18;;;2.30;74.90;;;;;;5057226;28;20048;-47
2021/11/25 01:56:35;;;;;;;27.00;14.45;;;2.20;74.90;;;;;;5057220;28;20032;-46
2021/11/25 01:59:01;;;;;;;30.48;15.60;;;2.20;75.10;;;;;;5057653;28;20033;-47
2021/11/25 02:01:33;;;;;;;26.75;13.60;;;2.20;75.20;;;;;;5057060;28;20033;-36
2021/11/25 02:03:59;;;;;;;24.65;14.02;;;2.20;75.30;;;;;;5057203;28;20071;-40
2021/11/25 02:06:25;;;;;;;22.88;12.48;;;2.20;75.40;;;;;;5056985;28;20059;-46
2021/11/25 02:08:51;;;;;;;25.05;13.82;;;2.10;75.40;;;;;;5057354;28;20029;-35
2021/11/25 02:11:17;;;;;;;27.00;14.10;;;2.10;75.50;;;;;;5057083;28;20368;-34
2021/11/25 02:13:43;;;;;;;22.98;13.57;;;2.10;75.60;;;;;;5057145;28;20036;-35
2021/11/25 02:16:09;;;;;;;23.77;13.10;;;2.10;75.60;;;;;;5056990;28;20044;-36
2021/11/25 02:18:35;;;;;;;23.33;11.93;;;2.10;75.70;;;;;;5056746;28;20361;-46
2021/11/25 02:21:02;;;;;;;22.27;12.57;;;2.10;75.80;;;;;;5057418;28;20032;-35
2021/11/25 02:23:28;;;;;;;22.42;12.48;;;2.10;75.90;;;;;;5056686;28;20029;-34
2021/11/25 02:25:55;;;;;;;23.45;12.63;;;2.10;75.90;;;;;;5057411;28;20056;-35
2021/11/25 02:28:24;;;;;;;22.88;12.40;;;2.10;76.00;;;;;;5056917;28;20411;-46
2021/11/25 02:30:50;;;;;;;24.65;11.95;;;2.10;76.00;;;;;;5057183;28;20025;-37
2021/11/25 02:33:16;;;;;;;22.00;11.75;;;2.00;76.00;;;;;;5056384;28;20028;-34
2021/11/25 02:35:43;;;;;;;21.98;11.48;;;2.00;76.10;;;;;;5057193;28;20126;-33
2021/11/25 02:38:10;;;;;;;21.45;11.60;;;2.10;76.20;;;;;;5056292;28;20028;-40
2021/11/25 02:40:40;;;;;;;20.92;11.77;;;2.10;76.20;;;;;;5057065;28;20364;-45
2021/11/25 02:43:10;;;;;;;21.45;12.27;;;2.10;76.20;;;;;;5056053;28;20100;-34
2021/11/25 02:45:50;;;;;;;21.38;11.35;;;2.10;76.10;;;;;;5056505;28;20028;-35
2021/11/25 02:48:17;;;;;;;20.90;10.95;;;2.10;76.00;;;;;;5056609;28;20337;-35
2021/11/25 02:50:44;;;;;;;19.05;10.23;;;2.10;76.00;;;;;;5056918;28;20372;-34
2021/11/25 02:53:10;;;;;;;16.42;10.05;;;2.20;76.00;;;;;;5055857;28;20037;-37
2021/11/25 02:55:36;;;;;;;17.35;9.70;;;2.20;76.00;;;;;;5056010;28;20056;-35
2021/11/25 02:58:02;;;;;;;18.08;10.75;;;2.20;76.00;;;;;;5055726;28;20033;-36
2021/11/25 03:00:42;;;;;;;20.98;10.00;;;2.20;76.00;;;;;;5056499;28;20349;-46
2021/11/25 03:03:11;;;;;;;17.23;9.20;;;2.20;75.90;;;;;;5056004;28;20414;-45
2021/11/25 03:05:39;;;;;;;19.58;10.88;;;2.20;75.90;;;;;;5056588;28;20373;-45
2021/11/25 03:08:06;;;;;;;18.67;10.80;;;2.20;76.00;;;;;;5055871;28;20147;-46
2021/11/25 03:10:39;;;;;;;18.80;9.70;;;2.30;76.00;;;;;;5056505;28;20024;-45
2021/11/25 03:13:06;;;;;;;18.65;9.75;;;2.30;76.00;;;;;;5055614;28;20025;-46
2021/11/25 03:15:34;;;;;;;24.40;11.95;;;2.30;75.90;;;;;;5056402;28;20029;-36
2021/11/25 03:18:00;;;;;;;19.35;10.07;;;2.30;75.80;;;;;;5055726;28;20108;-34
2021/11/25 03:20:26;;;;;;;21.33;11.32;;;2.30;75.80;;;;;;5056344;28;20132;-45
2021/11/25 03:22:52;;;;;;;20.00;10.75;;;2.30;75.70;;;;;;5055927;28;20101;-35
2021/11/25 03:25:18;;;;;;;21.70;11.88;;;2.40;75.60;;;;;;5056145;28;20356;-35
2021/11/25 03:27:44;;;;;;;22.88;11.68;;;2.40;75.60;;;;;;5055501;28;20037;-33
2021/11/25 03:30:10;;;;;;;23.25;12.60;;;2.40;75.50;;;;;;5056115;28;20040;-35
2021/11/25 03:32:36;;;;;;;22.80;12.93;;;2.40;75.50;;;;;;5056060;28;20120;-34
2021/11/25 03:35:02;;;;;;;20.65;11.23;;;2.40;75.40;;;;;;5055973;28;20465;-35
2021/11/25 03:37:27;;;;;;;23.98;11.60;;;2.50;75.30;;;;;;5055687;28;20041;-34
2021/11/25 03:39:53;;;;;;;20.30;11.85;;;2.50;75.20;;;;;;5055835;28;20132;-46
2021/11/25 03:42:19;;;;;;;21.25;11.57;;;2.50;75.20;;;;;;5055326;28;20361;-46
2021/11/25 03:44:46;;;;;;;20.75;12.07;;;2.50;75.00;;;;;;5056057;28;20425;-46
2021/11/25 03:47:12;;;;;;;21.50;11.95;;;2.50;75.00;;;;;;5055562;28;20032;-36
2021/11/25 03:49:38;;;;;;;22.30;12.00;;;2.50;74.90;;;;;;5055923;28;20044;-45
2021/11/25 03:52:04;;;;;;;24.85;13.13;;;2.50;74.80;;;;;;5055342;28;20742;-46
2021/11/25 03:54:30;;;;;;;27.45;12.93;;;2.50;74.80;;;;;;5056929;28;20071;-39
2021/11/25 03:56:56;;;;;;;25.42;13.00;;;2.60;74.70;;;;;;5059605;28;20033;-35
2021/11/25 03:59:22;;;;;;;19.70;11.73;;;2.60;74.70;;;;;;5059754;28;20352;-34
2021/11/25 04:01:47;;;;;;;25.73;13.10;;;2.60;74.60;;;;;;5059612;28;20031;-34
2021/11/25 04:04:13;;;;;;;25.10;13.38;;;2.60;74.40;;;;;;5059490;28;20426;-45
2021/11/25 04:06:39;;;;;;;26.48;13.02;;;2.60;74.40;;;;;;5059326;28;20025;-34
2021/11/25 04:09:05;;;;;;;23.55;12.63;;;2.60;74.30;;;;;;5059492;28;20405;-36
2021/11/25 04:11:30;;;;;;;23.88;11.70;;;2.60;74.30;;;;;;5059025;28;20328;-34
2021/11/25 04:14:00;;;;;;;22.63;12.20;;;2.60;74.40;;;;;;5059240;28;20079;-46
2021/11/25 04:16:26;;;;;;;24.65;12.85;;;2.60;74.40;;;;;;5059284;28;20033;-36
2021/11/25 04:18:51;;;;;;;24.80;12.82;;;2.60;74.20;;;;;;5059242;28;20021;-43
2021/11/25 04:21:17;;;;;;;22.42;12.65;;;2.60;74.10;;;;;;5059356;28;20341;-35
2021/11/25 04:23:43;;;;;;;23.05;13.43;;;2.60;74.20;;;;;;5059177;28;20406;-46
2021/11/25 04:26:08;;;;;;;19.95;10.93;;;2.60;74.20;;;;;;5059163;28;20031;-37
2021/11/25 04:28:34;;;;;;;19.88;12.00;;;2.60;74.10;;;;;;5059016;28;20213;-34
2021/11/25 04:36:30;;;;;;;49.50;19.83;;;2.60;74.10;;;;;;5058690;28;20381;-45
2021/11/25 04:38:56;;;;;;;44.25;19.98;;;2.60;74.00;;;;;;5058574;28;20033;-34
2021/11/25 04:41:22;;;;;;;25.33;12.50;;;2.60;74.00;;;;;;5058582;28;20127;-45
2021/11/25 04:43:48;;;;;;;20.77;12.05;;;2.60;74.00;;;;;;5058936;28;20028;-36
2021/11/25 04:46:13;;;;;;;26.38;13.80;;;2.60;74.20;;;;;;5058855;28;20028;-34
2021/11/25 04:48:39;;;;;;;21.55;11.82;;;2.60;74.10;;;;;;5058856;28;20031;-46
2021/11/25 04:51:05;;;;;;;21.10;12.65;;;2.60;74.10;;;;;;5058663;28;20385;-34
2021/11/25 04:53:31;;;;;;;24.48;12.80;;;2.60;74.10;;;;;;5058220;28;20111;-45
2021/11/25 04:55:57;;;;;;;23.40;12.82;;;2.60;74.00;;;;;;5058009;28;20048;-45
2021/11/25 04:58:23;;;;;;;24.35;13.48;;;2.60;74.00;;;;;;5058182;28;20036;-45
2021/11/25 05:00:48;;;;;;;28.70;13.82;;;2.70;74.10;;;;;;5058899;28;20017;-45
2021/11/25 05:03:14;;;;;;;23.38;12.48;;;2.70;73.90;;;;;;5058296;28;20033;-34
2021/11/25 05:05:41;;;;;;;19.85;11.95;;;2.70;74.00;;;;;;5058639;28;20029;-34
2021/11/25 05:08:07;;;;;;;24.95;13.18;;;2.70;73.90;;;;;;5058131;28;20032;-34
2021/11/25 05:10:33;;;;;;;22.70;12.05;;;2.70;73.80;;;;;;5058649;28;20033;-34
2021/11/25 05:12:59;;;;;;;23.40;12.30;;;2.70;73.70;;;;;;5057691;28;20052;-46
2021/11/25 05:15:24;;;;;;;23.58;12.73;;;2.70;73.70;;;;;;5058192;28;20060;-45
2021/11/25 05:17:51;;;;;;;19.90;11.60;;;2.70;73.60;;;;;;5058137;28;20021;-36
2021/11/25 05:20:17;;;;;;;25.23;11.73;;;2.70;73.70;;;;;;5058305;28;20036;-46
2021/11/25 05:22:43;;;;;;;22.23;12.20;;;2.70;73.60;;;;;;5057719;28;20029;-46
2021/11/25 05:25:11;;;;;;;21.95;12.50;;;2.70;73.60;;;;;;5058347;28;20051;-35
2021/11/25 05:27:37;;;;;;;20.83;11.70;;;2.70;73.50;;;;;;5057514;28;20029;-45
2021/11/25 05:30:07;;;;;;;28.73;15.10;;;2.80;73.60;;;;;;5057844;28;20098;-37
2021/11/25 05:32:33;;;;;;;27.33;13.05;;;2.80;73.50;;;;;;5057491;28;20043;-35
2021/11/25 05:34:59;;;;;;;22.83;12.13;;;2.80;73.40;;;;;;5057857;28;20037;-46
2021/11/25 05:37:24;;;;;;;22.50;12.40;;;2.80;73.40;;;;;;5057530;28;20178;-34
2021/11/25 05:39:50;;;;;;;25.83;12.73;;;2.80;73.40;;;;;;5057686;28;20033;-37
2021/11/25 05:42:18;;;;;;;25.45;14.25;;;2.80;73.40;;;;;;5057151;28;20423;-37
2021/11/25 05:44:44;;;;;;;25.40;14.55;;;2.90;73.60;;;;;;5057649;28;20033;-37
2021/11/25 05:47:10;;;;;;;25.38;12.73;;;2.90;73.50;;;;;;5057012;28;20021;-35
2021/11/25 05:49:36;;;;;;;21.40;11.77;;;2.90;73.50;;;;;;5057615;28;20031;-35
2021/11/25 05:52:02;;;;;;;25.10;13.35;;;3.00;73.40;;;;;;5057020;28;20061;-35
2021/11/25 05:54:28;;;;;;;24.70;13.77;;;3.00;73.20;;;;;;5057117;28;20442;-35
2021/11/25 05:56:54;;;;;;;25.88;13.90;;;3.00;72.90;;;;;;5056829;28;20334;-35
2021/11/25 05:59:19;;;;;;;23.73;12.88;;;3.00;73.00;;;;;;5057351;28;20032;-36
2021/11/25 06:01:45;;;;;;;24.73;13.90;;;3.00;73.00;;;;;;5056805;28;20029;-46
2021/11/25 06:04:12;;;;;;;27.60;13.68;;;3.00;72.90;;;;;;5050551;28;20036;-36
2021/11/25 06:06:38;;;;;;;24.58;13.35;;;3.00;72.90;;;;;;5043439;28;20033;-35
2021/11/25 06:09:04;;;;;;;29.50;16.33;;;3.00;72.90;;;;;;5036863;28;20036;-36
2021/11/25 06:11:29;;;;;;;27.80;14.82;;;3.00;72.90;;;;;;5036860;28;20439;-35
2021/11/25 06:13:55;;;;;;;29.08;15.90;;;3.10;73.00;;;;;;5036852;28;20033;-35
2021/11/25 06:16:21;;;;;;;27.45;15.35;;;3.10;72.90;;;;;;5036485;28;20029;-36
2021/11/25 06:18:46;;;;;;;27.42;15.50;;;3.10;72.90;;;;;;5035535;28;20107;-35
2021/11/25 06:21:12;;;;;;;27.65;15.32;;;3.10;72.90;;;;;;5036779;28;20029;-45
2021/11/25 06:23:39;;;;;;;33.10;17.45;;;3.10;72.90;;;;;;5036926;28;20132;-35
2021/11/25 06:26:05;;;;;;;31.98;17.35;;;3.10;72.80;;;;;;5036852;28;20042;-34
2021/11/25 06:28:31;;;;;;;34.78;18.60;;;3.10;72.80;;;;;;5036443;28;20033;-45
2021/11/25 06:30:57;;;;;;;36.53;17.20;;;3.20;72.90;;;;;;5036952;28;20041;-46
2021/11/25 06:33:22;;;;;;;32.17;17.30;;;3.20;72.90;;;;;;5036039;28;20060;-46
2021/11/25 06:35:48;;;;;;;32.53;15.68;;;3.20;72.80;;;;;;5035558;28;20314;-35
2021/11/25 06:38:14;;;;;;;37.17;17.85;;;3.30;73.00;;;;;;5035794;28;20164;-46
2021/11/25 06:40:40;;;;;;;29.77;15.20;;;3.30;73.00;;;;;;5036645;28;20318;-38
2021/11/25 06:43:07;;;;;;;28.42;16.10;;;3.30;73.10;;;;;;5039661;28;20029;-46
2021/11/25 06:45:34;;;;;;;28.50;15.32;;;3.40;73.00;;;;;;5056454;28;20028;-47
2021/11/25 06:48:01;;;;;;;30.17;16.02;;;3.40;73.00;;;;;;5055565;28;20032;-47
2021/11/25 06:50:27;;;;;;;34.72;17.30;;;3.40;73.10;;;;;;5055252;28;20035;-46
2021/11/25 06:52:53;;;;;;;27.40;16.05;;;3.50;73.20;;;;;;5055597;28;20384;-35
2021/11/25 06:55:20;;;;;;;25.17;14.52;;;3.50;73.00;;;;;;5044426;28;20124;-34
2021/11/25 06:57:49;;;;;;;34.42;18.08;;;3.50;73.10;;;;;;5055352;28;20444;-36
2021/11/25 07:00:16;;;;;;;30.05;14.95;;;3.50;73.20;;;;;;5056046;28;20102;-35
2021/11/25 07:02:43;;;;;;;28.98;16.13;;;3.60;73.20;;;;;;5055295;28;20037;-45
2021/11/25 07:05:10;;;;;;;29.50;16.75;;;3.60;73.30;;;;;;5055955;28;20032;-36
2021/11/25 07:07:36;;;;;;;33.45;17.08;;;3.60;73.30;;;;;;5055233;28;20059;-36
2021/11/25 07:10:04;;;;;;;25.77;14.88;;;3.60;73.40;;;;;;5055872;28;20091;-37
2021/11/25 07:12:30;;;;;;;25.88;15.00;;;3.70;73.50;;;;;;5055406;28;20083;-34
2021/11/25 07:14:56;;;;;;;29.67;15.55;;;3.70;73.40;;;;;;5055723;28;20044;-34
2021/11/25 07:17:22;;;;;;;30.55;17.35;;;3.70;73.30;;;;;;5055180;28;20042;-34
2021/11/25 07:19:47;;;;;;;28.95;15.80;;;3.70;73.40;;;;;;5055460;28;20029;-38
2021/11/25 07:22:13;;;;;;;29.15;15.55;;;3.70;73.40;;;;;;5055386;28;20322;-34
2021/11/25 07:24:39;;;;;;;27.73;15.52;;;3.70;73.40;;;;;;5055643;28;20029;-35
2021/11/25 07:27:05;;;;;;;29.83;15.98;;;3.70;73.50;;;;;;5038950;28;20087;-46
2021/11/25 07:29:31;;;;;;;26.23;15.23;;;3.80;73.60;;;;;;5034822;28;20034;-47
2021/11/25 07:31:56;;;;;;;27.90;16.33;;;3.80;73.60;;;;;;5035563;28;20048;-45
2021/11/25 07:34:22;;;;;;;28.65;15.65;;;3.80;73.60;;;;;;5036808;28;20033;-45
2021/11/25 07:36:48;;;;;;;28.23;16.92;;;3.90;73.80;;;;;;5036230;28;20033;-36
2021/11/25 07:39:14;;;;;;;34.53;19.27;;;3.90;73.60;;;;;;5051115;28;20036;-46
2021/11/25 07:41:41;;;;;;;38.92;21.08;;;4.00;73.80;;;;;;5050487;28;20113;-35
2021/11/25 07:44:07;;;;;;;40.78;22.33;;;4.00;73.90;;;;;;5035283;28;20033;-46
2021/11/25 07:46:34;;;;;;;39.83;23.08;;;4.10;73.70;;;;;;5034979;28;20026;-45
2021/11/25 07:49:02;;;;;;;29.77;18.45;;;4.10;73.80;;;;;;5034643;28;20472;-46
2021/11/25 07:51:29;;;;;;;34.70;19.85;;;4.20;73.50;;;;;;5033556;28;20046;-40
2021/11/25 07:53:55;;;;;;;32.05;20.42;;;4.20;73.40;;;;;;5034496;28;20034;-39
2021/11/25 07:56:20;;;;;;;36.25;20.23;;;4.30;73.30;;;;;;5034887;28;20053;-32
2021/11/25 07:58:46;;;;;;;35.00;20.25;;;4.30;73.30;;;;;;5034701;28;20258;-34
2021/11/25 08:01:12;;;;;;;32.05;17.73;;;4.40;73.10;;;;;;5034997;28;20033;-47
2021/11/25 08:03:38;;;;;;;31.50;18.33;;;4.40;72.90;;;;;;5034879;28;20426;-32
2021/11/25 08:06:03;;;;;;;32.80;18.83;;;4.40;72.90;;;;;;5034828;28;20037;-32
2021/11/25 08:08:29;;;;;;;31.65;19.10;;;4.40;73.00;;;;;;5045368;28;20108;-45
2021/11/25 08:10:56;;;;;;;31.10;17.45;;;4.40;73.20;;;;;;5037381;28;20311;-47
2021/11/25 08:13:21;;;;;;;29.75;18.45;;;4.50;73.00;;;;;;5034631;28;20034;-45
2021/11/25 08:15:47;;;;;;;33.95;18.25;;;4.50;72.90;;;;;;5035237;28;20390;-36
2021/11/25 08:18:13;;;;;;;31.38;18.48;;;4.50;73.00;;;;;;5034523;28;20330;-47
2021/11/25 08:20:38;;;;;;;32.20;19.00;;;4.50;72.90;;;;;;5035251;28;20038;-45
2021/11/25 08:23:04;;;;;;;28.05;17.85;;;4.50;72.80;;;;;;5034859;28;20037;-35
2021/11/25 08:25:30;;;;;;;30.45;16.92;;;4.50;72.80;;;;;;5034876;28;20075;-41
2021/11/25 08:27:57;;;;;;;27.55;17.08;;;4.60;72.80;;;;;;5034444;28;20048;-41
2021/11/25 08:30:24;;;;;;;33.75;16.92;;;4.60;72.60;;;;;;5034823;28;20112;-40
2021/11/25 08:32:51;;;;;;;33.85;18.05;;;4.60;72.60;;;;;;5034135;28;20083;-40
2021/11/25 08:35:17;;;;;;;43.35;18.48;;;4.60;72.60;;;;;;5035006;28;20095;-36
2021/11/25 08:37:43;;;;;;;29.50;16.52;;;4.70;72.80;;;;;;5034862;28;20112;-35
2021/11/25 08:40:11;;;;;;;35.30;18.90;;;4.70;72.70;;;;;;5035798;28;20457;-40
2021/11/25 08:42:37;;;;;;;29.35;16.45;;;4.80;72.70;;;;;;5037405;28;20026;-35
2021/11/25 08:45:05;;;;;;;30.25;17.88;;;4.80;72.50;;;;;;5038396;28;20034;-39
2021/11/25 08:47:30;;;;;;;33.03;18.35;;;4.90;72.50;;;;;;5037792;28;20021;-34
2021/11/25 08:49:56;;;;;;;27.70;16.58;;;4.90;72.40;;;;;;5038512;28;20112;-33
2021/11/25 08:52:22;;;;;;;30.38;17.27;;;5.00;72.30;;;;;;5037997;28;20116;-35
2021/11/25 08:54:48;;;;;;;26.83;16.38;;;5.00;72.30;;;;;;5037967;28;20057;-39
2021/11/25 08:57:14;;;;;;;30.98;17.80;;;5.10;71.90;;;;;;5037534;28;20037;-33
2021/11/25 08:59:40;;;;;;;26.88;16.38;;;5.10;72.00;;;;;;5036819;28;20033;-33
2021/11/25 09:02:05;;;;;;;28.67;16.08;;;5.20;72.00;;;;;;5037566;28;20095;-34
2021/11/25 09:04:31;;;;;;;25.17;15.10;;;5.30;71.80;;;;;;5038045;28;20026;-34
2021/11/25 09:06:58;;;;;;;28.30;17.05;;;5.30;71.40;;;;;;5037893;28;20449;-40
2021/11/25 09:09:24;;;;;;;29.30;15.65;;;5.30;71.30;;;;;;5038103;28;20314;-35
2021/11/25 09:11:50;;;;;;;32.15;15.52;;;5.30;71.10;;;;;;5037502;28;20030;-41
2021/11/25 09:14:16;;;;;;;25.98;16.00;;;5.40;70.90;;;;;;5037825;28;20064;-34
2021/11/25 09:16:42;;;;;;;28.80;15.40;;;5.40;70.50;;;;;;5037329;28;20341;-41
2021/11/25 09:19:08;;;;;;;27.80;14.68;;;5.40;70.40;;;;;;5037889;28;20038;-33
2021/11/25 09:21:34;;;;;;;25.75;14.10;;;5.40;70.50;;;;;;5037595;28;20029;-32
2021/11/25 09:24:04;;;;;;;25.90;14.63;;;5.50;70.40;;;;;;5037667;28;20361;-39
2021/11/25 09:26:30;;;;;;;28.10;16.87;;;5.50;70.40;;;;;;5044963;28;20029;-34
2021/11/25 09:28:59;;;;;;;26.58;14.13;;;5.50;70.10;;;;;;5041214;28;20030;-40
2021/11/25 09:31:30;;;;;;;25.45;14.88;;;5.50;69.90;;;;;;5037487;28;20264;-37
2021/11/25 09:33:56;;;;;;;24.42;14.75;;;5.60;69.80;;;;;;5049421;28;20020;-34
2021/11/25 09:36:23;;;;;;;25.48;15.40;;;5.60;69.80;;;;;;5057432;28;20043;-38
2021/11/25 09:38:49;;;;;;;33.92;17.55;;;5.60;70.00;;;;;;5057130;28;20025;-34
2021/11/25 09:41:16;;;;;;;31.45;16.23;;;5.60;69.70;;;;;;5057259;28;20033;-36
2021/11/25 09:43:42;;;;;;;30.55;15.95;;;5.60;69.70;;;;;;5057470;28;20021;-43
2021/11/25 09:46:10;;;;;;;33.10;16.55;;;5.70;69.70;;;;;;5057106;28;20060;-44
2021/11/25 09:48:37;;;;;;;31.58;16.77;;;5.70;70.00;;;;;;5056775;28;20404;-46
2021/11/25 09:51:05;;;;;;;25.20;16.25;;;5.80;70.00;;;;;;5057415;28;20039;-47
2021/11/25 09:53:31;;;;;;;29.95;16.48;;;5.90;70.10;;;;;;5056323;28;20086;-48
2021/11/25 09:55:59;;;;;;;30.42;16.35;;;5.90;69.80;;;;;;5056828;28;20049;-47
2021/11/25 09:58:27;;;;;;;22.98;13.82;;;6.00;68.90;;;;;;5056817;28;20033;-47
2021/11/25 10:01:02;;;;;;;29.75;15.13;;;6.10;68.50;;;;;;5057354;28;20103;-44
2021/11/25 10:03:28;;;;;;;30.35;15.48;;;6.10;68.80;;;;;;5057137;28;20032;-47
2021/11/25 10:05:56;;;;;;;30.20;16.60;;;6.20;68.50;;;;;;5057275;28;20302;-47
2021/11/25 10:08:23;;;;;;;25.80;13.93;;;6.30;68.50;;;;;;5056355;28;20064;-48
2021/11/25 10:11:14;;;;;;;31.40;16.73;;;6.40;68.10;;;;;;5056593;28;20047;-41
2021/11/25 10:13:56;;;;;;;23.75;14.70;;;6.40;67.70;;;;;;5055989;28;20032;-35
2021/11/25 10:16:28;;;;;;;25.58;14.32;;;6.50;67.30;;;;;;5049596;28;20040;-38
2021/11/25 10:19:07;;;;;;;24.50;13.55;;;6.50;67.30;;;;;;5040899;28;20322;-41
2021/11/25 10:21:33;;;;;;;21.98;12.88;;;6.50;67.00;;;;;;5036653;28;20037;-35
2021/11/25 10:23:59;;;;;;;24.23;13.65;;;6.60;66.60;;;;;;5036557;28;20026;-34
2021/11/25 10:26:29;;;;;;;33.33;15.35;;;6.60;66.60;;;;;;5036344;28;20027;-41
2021/11/25 10:28:57;;;;;;;28.63;15.82;;;6.70;66.80;;;;;;5036509;28;20052;-34
2021/11/25 10:31:25;;;;;;;27.88;17.30;;;6.70;66.40;;;;;;5036567;28;20036;-39
2021/11/25 10:34:06;;;;;;;40.40;14.73;;;6.70;66.10;;;;;;5036152;28;20029;-35
2021/11/25 10:42:06;;;;;;;21.23;11.82;;;6.70;65.20;;;;;;5036203;28;20429;-41
2021/11/25 10:44:38;;;;;;;27.67;12.63;;;6.70;64.90;;;;;;5036204;28;20029;-39
2021/11/25 10:47:07;;;;;;;30.83;13.93;;;6.70;64.70;;;;;;5036054;28;20028;-41
2021/11/25 10:49:50;;;;;;;20.35;12.40;;;6.70;64.90;;;;;;5035558;28;20029;-34
2021/11/25 10:52:29;;;;;;;20.98;11.32;;;6.70;64.70;;;;;;5034718;28;20034;-41
2021/11/25 10:55:07;;;;;;;27.08;12.38;;;6.70;64.20;;;;;;5034864;28;20052;-40
2021/11/25 10:57:39;;;;;;;19.83;11.93;;;6.70;63.90;;;;;;5035266;28;20099;-34
2021/11/25 11:00:25;;;;;;;18.98;12.60;;;6.70;63.90;;;;;;5036017;28;20041;-34
2021/11/25 11:03:03;;;;;;;23.85;12.38;;;6.80;64.00;;;;;;5035556;28;20026;-33
2021/11/25 11:05:29;;;;;;;22.00;13.73;;;6.70;63.50;;;;;;5036229;28;20121;-35
2021/11/25 11:08:06;;;;;;;26.20;13.35;;;6.80;63.40;;;;;;5035441;28;20172;-39
2021/11/25 11:10:33;;;;;;;22.38;14.02;;;6.80;63.60;;;;;;5036185;28;20124;-34
2021/11/25 11:20:47;;;;;;;17.27;12.02;;;6.90;62.20;;;;;;5036331;28;20112;-39
2021/11/25 11:23:23;;;;;;;25.05;13.52;;;7.00;62.00;;;;;;5035552;28;20441;-40
2021/11/25 11:25:50;;;;;;;17.92;12.10;;;7.00;61.40;;;;;;5035432;28;20048;-41
2021/11/25 11:28:17;;;;;;;22.75;13.90;;;7.00;61.10;;;;;;5034457;28;20030;-35
2021/11/25 11:30:45;;;;;;;28.80;13.05;;;7.00;60.70;;;;;;5034777;28;20059;-34
2021/11/25 11:33:13;;;;;;;24.17;15.90;;;7.00;61.20;;;;;;5035319;28;20086;-35
2021/11/25 11:35:40;;;;;;;19.95;11.35;;;7.00;61.10;;;;;;5035707;28;20026;-36
2021/11/25 11:38:08;;;;;;;23.40;10.15;;;7.00;60.80;;;;;;5035374;28;20029;-34
2021/11/25 11:40:37;;;;;;;21.75;11.25;;;7.00;60.60;;;;;;5035680;28;20083;-39
2021/11/25 11:43:03;;;;;;;15.95;10.45;;;7.00;60.40;;;;;;5034473;28;20108;-39
2021/11/25 11:45:32;;;;;;;15.45;10.40;;;7.00;60.30;;;;;;5035688;28;20025;-39
2021/11/25 11:48:01;;;;;;;15.68;10.57;;;7.00;59.90;;;;;;5035056;28;20038;-34
2021/11/25 11:50:37;;;;;;;20.33;10.50;;;6.90;59.50;;;;;;5035894;28;20036;-39
2021/11/25 11:53:09;;;;;;;17.67;9.25;;;6.90;59.40;;;;;;5035261;28;20120;-40
2021/11/25 11:55:38;;;;;;;15.50;10.70;;;6.90;58.90;;;;;;5035248;28;20442;-34
2021/11/25 11:58:30;;;;;;;15.15;9.68;;;6.80;59.00;;;;;;5035397;28;20357;-34
2021/11/25 12:01:19;;;;;;;13.68;9.52;;;6.80;59.50;;;;;;5035722;28;20036;-42
2021/11/25 12:03:52;;;;;;;15.93;9.75;;;6.80;59.40;;;;;;5035044;28;20038;-34
2021/11/25 12:06:37;;;;;;;20.92;10.05;;;6.80;58.80;;;;;;5035280;28;20034;-39
2021/11/25 12:09:23;;;;;;;19.75;12.15;;;6.80;59.10;;;;;;5034511;28;20295;-40
2021/11/25 12:11:50;;;;;;;19.65;11.48;;;6.80;58.90;;;;;;5033884;28;20049;-40
2021/11/25 12:14:27;;;;;;;17.20;11.52;;;6.70;58.90;;;;;;5035204;28;20029;-40
2021/11/25 12:17:01;;;;;;;19.98;10.15;;;6.70;59.10;;;;;;5049568;28;20475;-34
2021/11/25 12:19:39;;;;;;;20.65;11.60;;;6.70;59.20;;;;;;5039328;28;20327;-35
2021/11/25 12:22:13;;;;;;;20.25;12.30;;;6.70;59.20;;;;;;5038629;28;20366;-34
2021/11/25 12:24:53;;;;;;;18.42;13.85;;;6.70;59.10;;;;;;5039157;28;20033;-36
2021/11/25 12:27:30;;;;;;;23.20;12.18;;;6.60;59.40;;;;;;5038938;28;20021;-35
2021/11/25 12:30:10;;;;;;;25.45;13.85;;;6.60;59.60;;;;;;5038982;28;20406;-33
2021/11/25 12:32:48;;;;;;;17.38;10.70;;;6.70;60.00;;;;;;5050088;28;20333;-34
2021/11/25 12:35:14;;;;;;;30.60;14.20;;;6.70;59.60;;;;;;5038937;28;20090;-34
2021/11/25 12:37:52;;;;;;;26.98;12.73;;;6.70;59.80;;;;;;5038817;28;20037;-35
2021/11/25 12:40:18;;;;;;;16.08;11.10;;;6.70;60.00;;;;;;5038952;28;20068;-34
2021/11/25 12:42:59;;;;;;;22.77;12.75;;;6.70;59.90;;;;;;5037646;28;20057;-34
2021/11/25 12:45:30;;;;;;;19.25;12.43;;;6.70;59.70;;;;;;5038495;28;20369;-34
2021/11/25 12:48:05;;;;;;;;;;;6.70;59.80;;;;;;5038718;28;20022;-35
2021/11/25 12:50:55;;;;;;;19.23;12.88;;;6.70;59.80;;;;;;5038699;28;20005;-34
2021/11/25 12:53:23;;;;;;;18.20;12.95;;;6.60;59.70;;;;;;5038333;28;20037;-34
2021/11/25 12:56:12;;;;;;;16.83;11.57;;;6.60;59.60;;;;;;5037986;28;20350;-34
2021/11/25 12:58:47;;;;;;;17.00;10.40;;;6.50;59.30;;;;;;5038074;28;20029;-35
2021/11/25 13:01:20;;;;;;;16.38;9.55;;;6.50;59.30;;;;;;5038395;28;20030;-34